VLLN

Luang Namtha Airport

Luang Namtha, Lao People’s Democratic Republic
TAF VLLN 191700Z 1918/2018 06004KT 8000 SCT020 SCT100 TEMPO 1918/1922 3000 BR SCT010 BKN100
Issued Valid From Valid To
Nov-19 @ 17:00 UTC
(5 hours ago)
Nov-19 @ 18:00 UTC
(4 hours ago)
Nov-20 @ 18:00 UTC
(in 20 hours)
Nov-19 @ 18:00 to Nov-20 @ 18:00
TAF VLLN 191700Z 1918/2018 06004KT 8000 SCT020 SCT100
Wind Visibility Clouds
60° at 4 knots 7,998 meters
  • Scattered at 2,000' AGL
  • Scattered at 10,000' AGL
Expired Click to View Nov-19 @ 18:00 to Nov-19 @ 22:00
TEMPO 1918/1922 3000 BR SCT010 BKN100
Visibility Clouds Conditions
2,993 meters
  • Scattered at 1,000' AGL
  • Broken at 10,000' AGL
  • Mist
TAF VLLN 191700Z 1918/2018 06004KT 8000 SCT020 SCT100 TEMPO 1918/1922 3000 BR SCT010 BKN100
Issued Nov-19 @ 17:00 UTC
(5 hours ago)
Valid From Nov-19 @ 18:00 UTC
(4 hours ago)
Valid To Nov-20 @ 18:00 UTC
(in 20 hours)
Nov-19 @ 18:00 - Nov-20 @ 18:00
Wind Visibility
60° at 4 knots 7,998 meters
Clouds
  • Scattered at 2,000' AGL
  • Scattered at 10,000' AGL
Nov-19 @ 18:00 - Nov-19 @ 22:00
Clouds
  • Scattered at 1,000' AGL
  • Broken at 10,000' AGL
Conditions
  • Mist